Time;durP1;ratioP1;P1;durP2;ratioP2;P2;SDS_P1;SDS_P2;PMS_P1;PMS_P2;Temp;Humidity;BMP_temperature;BMP_pressure;BME280_temperature;BME280_humidity;BME280_pressure;Samples;Min_cycle;Max_cycle;Signal;HPM_P1;HPM_P2
2023/09/28 00:02:22;;;;;;;9.20;5.93;;;18.90;99.90;;;;;;5093705;28;20154;-65
2023/09/28 00:04:49;;;;;;;9.40;5.90;;;18.80;99.90;;;;;;5094458;28;20597;-65
2023/09/28 00:07:16;;;;;;;10.27;6.85;;;18.80;99.90;;;;;;5112261;28;20047;-65
2023/09/28 00:09:43;;;;;;;8.60;6.97;;;18.80;99.90;;;;;;5111782;28;20551;-65
2023/09/28 00:12:09;;;;;;;8.10;6.72;;;18.80;99.90;;;;;;5094132;28;20733;-64
2023/09/28 00:14:37;;;;;;;8.75;7.55;;;18.70;99.90;;;;;;5112647;28;20054;-64
2023/09/28 00:17:04;;;;;;;11.18;7.15;;;18.80;99.90;;;;;;5111820;28;20043;-64
2023/09/28 00:19:31;;;;;;;9.95;7.15;;;18.70;99.90;;;;;;5094069;28;20047;-64
2023/09/28 00:21:57;;;;;;;8.32;6.72;;;18.70;99.90;;;;;;5091726;28;20051;-64
2023/09/28 00:24:24;;;;;;;14.60;7.15;;;18.70;99.90;;;;;;5093775;28;20074;-65
2023/09/28 00:26:51;;;;;;;7.85;6.40;;;18.60;99.90;;;;;;5093896;28;20108;-65
2023/09/28 00:29:19;;;;;;;10.75;6.88;;;18.60;99.90;;;;;;5112473;28;20039;-64
2023/09/28 00:31:47;;;;;;;9.18;6.68;;;18.60;99.90;;;;;;5111770;28;20098;-65
2023/09/28 00:34:14;;;;;;;8.10;7.07;;;18.60;99.90;;;;;;5094086;28;20055;-64
2023/09/28 00:36:40;;;;;;;8.38;6.80;;;18.60;99.90;;;;;;5093894;28;20058;-64
2023/09/28 00:39:08;;;;;;;8.95;7.10;;;18.50;99.90;;;;;;5092771;28;20438;-64
2023/09/28 00:41:34;;;;;;;10.15;6.85;;;18.50;99.90;;;;;;5111938;28;20047;-65
2023/09/28 00:44:04;;;;;;;8.88;7.03;;;18.50;99.90;;;;;;5112226;28;20088;-65
2023/09/28 00:46:32;;;;;;;9.63;7.00;;;18.50;99.90;;;;;;5093542;28;20519;-65
2023/09/28 00:49:05;;;;;;;10.15;7.28;;;18.50;99.90;;;;;;5091976;28;20690;-65
2023/09/28 00:51:32;;;;;;;9.63;6.68;;;18.40;99.90;;;;;;5089217;28;20051;-64
2023/09/28 00:54:01;;;;;;;9.07;7.32;;;18.50;99.90;;;;;;5093430;28;20036;-64
2023/09/28 00:56:28;;;;;;;9.32;7.10;;;18.40;99.90;;;;;;5093520;28;20055;-64
2023/09/28 00:58:57;;;;;;;10.15;7.40;;;19.00;99.90;;;;;;5094717;28;20372;-64
2023/09/28 01:01:29;;;;;;;11.52;6.70;;;18.50;99.90;;;;;;5116025;28;20054;-65
2023/09/28 01:04:00;;;;;;;9.48;6.53;;;18.40;99.90;;;;;;5097845;28;20044;-65
2023/09/28 01:06:27;;;;;;;9.27;6.90;;;18.40;99.90;;;;;;5094973;28;20062;-65
2023/09/28 01:08:54;;;;;;;9.40;6.78;;;18.40;99.90;;;;;;5097525;28;20096;-65
2023/09/28 01:11:20;;;;;;;8.38;6.18;;;18.40;99.90;;;;;;5095732;28;20139;-64
2023/09/28 01:13:48;;;;;;;9.77;7.05;;;18.40;99.90;;;;;;5096029;28;20492;-65
2023/09/28 01:16:14;;;;;;;10.60;6.85;;;18.40;99.90;;;;;;5097972;28;20388;-64
2023/09/28 01:18:41;;;;;;;8.63;6.53;;;18.40;99.90;;;;;;5115504;28;20047;-65
2023/09/28 01:21:10;;;;;;;11.00;6.43;;;18.40;99.90;;;;;;5097270;28;20051;-65
2023/09/28 01:23:39;;;;;;;10.35;6.53;;;18.30;99.90;;;;;;5097347;28;20039;-66
2023/09/28 01:26:06;;;;;;;8.48;6.43;;;18.30;99.90;;;;;;5097158;28;20039;-64
2023/09/28 01:28:34;;;;;;;7.70;5.88;;;18.30;99.90;;;;;;5096671;28;20040;-65
2023/09/28 01:31:01;;;;;;;6.53;5.70;;;18.30;99.90;;;;;;5097167;28;20052;-65
2023/09/28 01:33:28;;;;;;;7.28;5.70;;;18.30;99.90;;;;;;5114945;28;20082;-64
2023/09/28 01:35:55;;;;;;;8.23;5.88;;;18.30;99.90;;;;;;5097113;28;20411;-64
2023/09/28 01:38:29;;;;;;;8.75;5.65;;;18.30;99.90;;;;;;5096887;28;20499;-64
2023/09/28 01:40:57;;;;;;;8.20;5.78;;;18.30;99.90;;;;;;5113242;28;20048;-64
2023/09/28 01:43:24;;;;;;;9.02;5.60;;;18.30;99.90;;;;;;5096930;28;20083;-64
2023/09/28 01:45:50;;;;;;;8.10;5.28;;;18.20;99.90;;;;;;5097055;28;20426;-65
2023/09/28 01:48:17;;;;;;;7.75;6.32;;;18.20;99.90;;;;;;5095953;28;20546;-64
2023/09/28 01:50:44;;;;;;;8.45;6.22;;;18.20;99.90;;;;;;5096976;28;20052;-65
2023/09/28 01:53:11;;;;;;;7.38;5.30;;;18.20;99.90;;;;;;5112689;28;20071;-64
2023/09/28 01:55:37;;;;;;;9.00;5.47;;;18.10;99.90;;;;;;5095931;28;20055;-64
2023/09/28 01:58:07;;;;;;;9.50;6.05;;;18.10;99.90;;;;;;5094086;28;20090;-65
2023/09/28 02:00:34;;;;;;;8.98;5.35;;;18.10;99.90;;;;;;5096578;28;20070;-64
2023/09/28 02:03:02;;;;;;;10.98;6.13;;;18.00;99.90;;;;;;5095812;28;20040;-64
2023/09/28 02:05:32;;;;;;;6.43;5.13;;;18.00;99.90;;;;;;5096323;28;20048;-64
2023/09/28 02:07:59;;;;;;;8.00;5.65;;;18.00;99.90;;;;;;5096181;28;20096;-63
2023/09/28 02:10:27;;;;;;;7.78;5.75;;;18.00;99.90;;;;;;5095225;28;20502;-65
2023/09/28 02:12:53;;;;;;;7.65;5.60;;;17.90;99.90;;;;;;5114575;28;20054;-64
2023/09/28 02:15:23;;;;;;;7.25;5.40;;;17.90;99.90;;;;;;5096293;28;20100;-64
2023/09/28 02:17:49;;;;;;;7.63;5.73;;;17.90;99.90;;;;;;5093203;28;20565;-64
2023/09/28 02:20:19;;;;;;;6.45;5.30;;;17.80;99.90;;;;;;5095058;28;20127;-64
2023/09/28 02:22:46;;;;;;;8.95;5.90;;;17.80;99.90;;;;;;5095764;28;20048;-64
2023/09/28 02:25:15;;;;;;;6.05;5.28;;;17.70;99.90;;;;;;5096205;28;20051;-64
2023/09/28 02:27:41;;;;;;;5.43;4.70;;;17.70;99.90;;;;;;5096089;28;20070;-64
2023/09/28 02:30:11;;;;;;;8.25;5.70;;;17.70;99.90;;;;;;5095450;28;20118;-64
2023/09/28 02:32:39;;;;;;;8.20;5.85;;;17.70;99.90;;;;;;5095184;28;20564;-64
2023/09/28 02:35:09;;;;;;;8.15;5.38;;;17.60;99.90;;;;;;5095781;28;20088;-64
2023/09/28 02:37:35;;;;;;;6.53;5.40;;;17.60;99.90;;;;;;5091066;28;20399;-64
2023/09/28 02:40:05;;;;;;;9.07;5.28;;;17.60;99.90;;;;;;5095483;28;20470;-64
2023/09/28 02:42:31;;;;;;;7.22;5.40;;;17.50;99.90;;;;;;5094301;28;20054;-64
2023/09/28 02:44:58;;;;;;;9.68;5.40;;;17.50;99.90;;;;;;5095145;28;20433;-65
2023/09/28 02:47:24;;;;;;;10.23;5.57;;;17.50;99.90;;;;;;5095862;28;20501;-64
2023/09/28 02:49:53;;;;;;;7.90;5.70;;;17.50;99.90;;;;;;5113703;28;20450;-65
2023/09/28 02:52:20;;;;;;;8.87;5.50;;;17.40;99.90;;;;;;5095284;28;20056;-64
2023/09/28 02:54:48;;;;;;;8.82;5.40;;;17.40;99.90;;;;;;5095310;28;20040;-63
2023/09/28 02:57:15;;;;;;;8.23;5.78;;;17.40;99.90;;;;;;5113519;28;20079;-65
2023/09/28 02:59:41;;;;;;;12.25;5.03;;;17.40;99.90;;;;;;5094730;28;20047;-64
2023/09/28 03:02:13;;;;;;;7.57;5.72;;;17.40;99.90;;;;;;5095141;28;20732;-64
2023/09/28 03:04:39;;;;;;;7.13;6.00;;;17.30;99.90;;;;;;5095573;28;20052;-64
2023/09/28 03:07:08;;;;;;;8.32;5.88;;;17.30;99.90;;;;;;5094807;28;20044;-64
2023/09/28 03:09:35;;;;;;;9.65;5.72;;;17.30;99.90;;;;;;5095194;28;20059;-64
2023/09/28 03:12:03;;;;;;;8.30;5.97;;;17.20;99.90;;;;;;5094834;28;20039;-64
2023/09/28 03:14:30;;;;;;;7.20;5.55;;;17.20;99.90;;;;;;5095134;28;20146;-64
2023/09/28 03:16:56;;;;;;;8.90;6.00;;;17.10;99.90;;;;;;5095190;28;20055;-64
2023/09/28 03:19:24;;;;;;;8.45;6.28;;;17.10;99.90;;;;;;5094079;28;20080;-63
2023/09/28 03:21:50;;;;;;;7.18;5.97;;;17.10;99.90;;;;;;5095040;28;20051;-64
2023/09/28 03:24:18;;;;;;;8.27;5.80;;;17.10;99.90;;;;;;5094808;28;20036;-64
2023/09/28 03:26:44;;;;;;;9.40;5.93;;;17.00;99.90;;;;;;5112670;28;20078;-64
2023/09/28 03:29:11;;;;;;;11.23;6.30;;;17.00;99.90;;;;;;5094811;28;20060;-65
2023/09/28 03:31:37;;;;;;;9.57;6.50;;;17.00;99.90;;;;;;5094961;28;20130;-65
2023/09/28 03:34:04;;;;;;;10.52;6.68;;;17.00;99.90;;;;;;5094296;28;20047;-64
2023/09/28 03:36:32;;;;;;;8.18;6.25;;;16.90;99.90;;;;;;5094872;28;20506;-64
2023/09/28 03:38:59;;;;;;;8.02;6.05;;;16.90;99.90;;;;;;5094850;28;20189;-64
2023/09/28 03:41:28;;;;;;;9.70;6.57;;;16.90;99.90;;;;;;5112505;28;20055;-64
2023/09/28 03:43:56;;;;;;;8.57;5.80;;;16.90;99.90;;;;;;5092634;28;20044;-65
2023/09/28 03:46:23;;;;;;;7.97;6.07;;;16.80;99.90;;;;;;5112699;28;20130;-65
2023/09/28 03:48:50;;;;;;;9.25;6.43;;;16.80;99.90;;;;;;5095204;28;20403;-64
2023/09/28 03:51:17;;;;;;;7.93;6.40;;;16.70;99.90;;;;;;5112486;28;20047;-65
2023/09/28 03:53:44;;;;;;;7.38;5.50;;;16.70;99.90;;;;;;5082494;28;20097;-65
2023/09/28 03:56:11;;;;;;;10.05;6.03;;;16.70;99.90;;;;;;5082726;28;20059;-64
2023/09/28 03:58:39;;;;;;;9.65;6.75;;;16.60;99.90;;;;;;5084048;28;20052;-65
2023/09/28 04:01:08;;;;;;;12.43;6.53;;;16.60;99.90;;;;;;5087983;28;20051;-65
2023/09/28 04:03:36;;;;;;;8.77;6.93;;;16.60;99.90;;;;;;5084366;28;20052;-65
2023/09/28 04:06:03;;;;;;;9.23;6.68;;;16.60;99.90;;;;;;5088294;28;20388;-65
2023/09/28 04:08:30;;;;;;;9.77;6.55;;;16.60;99.90;;;;;;5084476;28;20043;-65
2023/09/28 04:10:57;;;;;;;10.95;6.30;;;16.60;99.90;;;;;;5086554;28;20493;-65
2023/09/28 04:13:25;;;;;;;11.05;7.07;;;16.60;99.90;;;;;;5086309;28;20514;-65
2023/09/28 04:15:54;;;;;;;8.15;6.00;;;16.60;99.90;;;;;;5086285;28;20047;-64
2023/09/28 04:18:21;;;;;;;10.38;6.18;;;16.50;99.90;;;;;;5087851;28;20044;-65
2023/09/28 04:20:48;;;;;;;11.77;6.18;;;16.50;99.90;;;;;;5085572;28;20105;-66
2023/09/28 04:23:15;;;;;;;9.05;6.68;;;16.50;99.90;;;;;;5087804;28;20492;-65
2023/09/28 04:25:42;;;;;;;7.15;6.22;;;16.40;99.90;;;;;;5084228;28;20052;-64
2023/09/28 04:28:12;;;;;;;10.52;6.72;;;16.40;99.90;;;;;;5087996;28;20135;-65
2023/09/28 04:30:39;;;;;;;8.80;6.65;;;16.40;99.90;;;;;;5081939;28;20048;-64
2023/09/28 04:33:08;;;;;;;9.38;6.30;;;16.40;99.90;;;;;;5085587;28;20411;-63
2023/09/28 04:35:35;;;;;;;13.15;6.72;;;16.30;99.90;;;;;;5087631;28;20048;-65
2023/09/28 04:38:03;;;;;;;10.02;7.13;;;16.30;99.90;;;;;;5091244;28;20060;-64
2023/09/28 04:40:31;;;;;;;9.73;7.03;;;16.30;99.90;;;;;;5087010;28;20381;-64
2023/09/28 04:42:59;;;;;;;10.82;7.05;;;16.30;99.90;;;;;;5093443;28;20544;-64
2023/09/28 04:45:26;;;;;;;12.15;7.10;;;16.20;99.90;;;;;;5087440;28;20067;-64
2023/09/28 04:47:53;;;;;;;10.13;6.78;;;16.30;99.90;;;;;;5090433;28;20082;-65
2023/09/28 04:50:22;;;;;;;14.88;7.88;;;16.20;99.90;;;;;;5087701;28;20502;-64
2023/09/28 04:52:49;;;;;;;10.77;7.38;;;16.10;99.90;;;;;;5091588;28;20052;-63
2023/09/28 04:55:16;;;;;;;8.73;6.80;;;16.10;99.90;;;;;;5092543;28;20139;-64
2023/09/28 04:57:43;;;;;;;10.43;7.15;;;16.10;99.90;;;;;;5088420;28;20139;-64
2023/09/28 05:00:15;;;;;;;11.15;7.50;;;16.10;99.90;;;;;;5089832;28;20062;-64
2023/09/28 05:02:43;;;;;;;11.52;6.95;;;16.00;99.90;;;;;;5089343;28;20056;-65
2023/09/28 05:05:11;;;;;;;15.73;8.55;;;16.00;99.90;;;;;;5091309;28;20051;-64
2023/09/28 05:07:40;;;;;;;12.23;7.70;;;16.00;99.90;;;;;;5087586;28;20044;-65
2023/09/28 05:10:08;;;;;;;12.52;7.85;;;16.00;99.90;;;;;;5092835;28;20072;-65
2023/09/28 05:12:35;;;;;;;11.63;8.27;;;16.00;99.90;;;;;;5084644;28;20056;-65
2023/09/28 05:15:02;;;;;;;11.90;8.20;;;16.00;99.90;;;;;;5090732;28;20040;-65
2023/09/28 05:17:29;;;;;;;12.00;7.13;;;16.00;99.90;;;;;;5085960;28;20106;-66
2023/09/28 05:19:56;;;;;;;10.57;6.43;;;16.00;99.90;;;;;;5086609;28;20044;-65
2023/09/28 05:22:23;;;;;;;9.23;6.63;;;16.00;99.90;;;;;;5089669;28;20048;-65
2023/09/28 05:24:53;;;;;;;13.93;5.72;;;16.10;99.90;;;;;;5090454;28;20063;-65
2023/09/28 05:27:20;;;;;;;8.90;6.03;;;16.10;99.90;;;;;;5085760;28;20416;-64
2023/09/28 05:29:47;;;;;;;8.95;4.72;;;16.10;99.90;;;;;;5091575;28;20048;-63
2023/09/28 05:32:14;;;;;;;13.05;5.25;;;16.10;99.90;;;;;;5090808;28;20450;-64
2023/09/28 05:34:41;;;;;;;12.65;5.70;;;16.10;99.90;;;;;;5087247;28;20056;-64
2023/09/28 05:37:08;;;;;;;14.63;6.10;;;16.00;99.90;;;;;;5090783;28;20492;-65
2023/09/28 05:39:35;;;;;;;11.98;4.72;;;16.00;99.90;;;;;;5081630;28;20044;-65
2023/09/28 05:42:04;;;;;;;9.85;4.57;;;16.00;99.90;;;;;;5085054;28;20051;-65
2023/09/28 05:44:31;;;;;;;11.93;4.45;;;16.00;99.90;;;;;;5091519;28;20047;-65
2023/09/28 05:46:59;;;;;;;15.40;5.28;;;16.00;99.90;;;;;;5089996;28;20047;-64
2023/09/28 05:49:26;;;;;;;11.75;4.57;;;16.00;99.90;;;;;;5094145;28;20568;-66
2023/09/28 05:51:53;;;;;;;13.38;4.40;;;16.00;99.90;;;;;;5094138;28;20044;-65
2023/09/28 05:54:20;;;;;;;11.57;4.07;;;16.00;99.90;;;;;;5091836;28;20060;-65
2023/09/28 05:56:47;;;;;;;13.32;3.80;;;16.00;99.90;;;;;;5092809;28;20498;-65
2023/09/28 05:59:15;;;;;;;21.13;4.65;;;16.10;99.90;;;;;;5092612;28;20500;-66
2023/09/28 06:01:42;;;;;;;12.57;4.28;;;16.10;99.90;;;;;;5093445;28;20052;-65
2023/09/28 06:04:11;;;;;;;18.92;4.50;;;16.10;99.90;;;;;;5093027;28;20093;-67
2023/09/28 06:06:38;;;;;;;15.48;4.35;;;16.10;99.90;;;;;;5091885;28;20105;-65
2023/09/28 06:09:05;;;;;;;15.77;5.80;;;16.10;99.90;;;;;;5092443;28;20044;-65
2023/09/28 06:11:32;;;;;;;13.82;5.93;;;16.10;99.90;;;;;;5093638;28;20355;-66
2023/09/28 06:13:59;;;;;;;18.63;5.85;;;16.20;99.90;;;;;;5092929;28;20054;-64
2023/09/28 06:16:28;;;;;;;16.50;5.78;;;16.20;99.90;;;;;;5092206;28;20063;-64
2023/09/28 06:18:54;;;;;;;9.35;5.75;;;16.20;99.90;;;;;;5091768;28;20036;-66
2023/09/28 06:21:22;;;;;;;11.20;5.90;;;16.30;99.90;;;;;;5090827;28;20492;-64
2023/09/28 06:23:49;;;;;;;23.98;6.25;;;16.30;99.90;;;;;;5091774;28;20047;-65
2023/09/28 06:26:16;;;;;;;15.30;6.32;;;16.40;99.90;;;;;;5092493;28;20055;-65
2023/09/28 06:28:43;;;;;;;12.30;5.70;;;16.40;99.90;;;;;;5092372;28;20047;-66
2023/09/28 06:31:11;;;;;;;11.93;6.07;;;16.50;99.90;;;;;;5092019;28;20044;-66
2023/09/28 06:33:40;;;;;;;12.20;6.20;;;16.50;99.90;;;;;;5092580;28;20507;-65
2023/09/28 06:36:07;;;;;;;11.57;5.45;;;16.50;99.90;;;;;;5087745;28;20056;-65
2023/09/28 06:38:34;;;;;;;15.35;4.93;;;16.60;99.90;;;;;;5092174;28;20530;-64
2023/09/28 06:41:01;;;;;;;13.30;5.10;;;16.70;99.90;;;;;;5091713;28;20078;-66
2023/09/28 06:43:28;;;;;;;13.20;5.38;;;16.80;99.90;;;;;;5092838;28;20071;-66
2023/09/28 06:45:56;;;;;;;11.88;5.53;;;16.90;99.90;;;;;;5093194;28;20044;-65
2023/09/28 06:48:23;;;;;;;15.02;5.60;;;17.00;99.90;;;;;;5089989;28;20403;-64
2023/09/28 06:50:53;;;;;;;12.57;4.32;;;17.00;99.90;;;;;;5090450;28;20048;-67
2023/09/28 06:53:20;;;;;;;15.55;4.97;;;17.20;99.90;;;;;;5091349;28;20109;-64
2023/09/28 06:55:48;;;;;;;14.63;3.70;;;17.30;99.90;;;;;;5092239;28;20056;-67
2023/09/28 06:58:17;;;;;;;11.93;3.90;;;17.40;99.90;;;;;;5113185;28;20046;-65
2023/09/28 07:00:45;;;;;;;19.90;4.53;;;17.70;99.90;;;;;;5099297;28;20671;-66
2023/09/28 07:03:12;;;;;;;19.02;4.32;;;17.80;99.90;;;;;;5088144;28;20531;-64
2023/09/28 07:05:39;;;;;;;15.95;4.15;;;17.90;99.90;;;;;;5094634;28;20059;-64
2023/09/28 07:08:08;;;;;;;17.48;4.82;;;18.20;99.90;;;;;;5095796;28;20054;-65
2023/09/28 07:10:36;;;;;;;17.85;4.32;;;18.90;99.90;;;;;;5113278;28;20050;-65
2023/09/28 07:13:05;;;;;;;17.48;4.10;;;19.80;99.90;;;;;;5094631;28;20486;-65
2023/09/28 07:15:32;;;;;;;22.75;4.72;;;20.60;99.90;;;;;;5093522;28;20058;-66
2023/09/28 07:17:59;;;;;;;22.40;4.28;;;21.20;99.90;;;;;;5112541;28;20051;-66
2023/09/28 07:20:27;;;;;;;21.30;4.68;;;21.70;99.90;;;;;;5093593;28;20047;-65
2023/09/28 07:22:54;;;;;;;17.13;4.45;;;22.20;99.90;;;;;;5077872;28;20047;-66
2023/09/28 07:25:25;;;;;;;16.30;4.43;;;22.40;99.90;;;;;;5112606;28;20052;-65
2023/09/28 07:27:52;;;;;;;;;;;22.90;99.90;;;;;;5092278;28;20188;-66
2023/09/28 07:30:20;;;;;;;12.45;3.22;;;23.00;99.90;;;;;;5094939;28;19927;-65
2023/09/28 07:32:47;;;;;;;18.40;4.63;;;23.00;99.90;;;;;;5111826;28;20040;-65
2023/09/28 07:35:14;;;;;;;17.95;4.28;;;22.90;99.90;;;;;;5112904;28;20063;-65
2023/09/28 07:37:43;;;;;;;17.48;4.28;;;22.70;99.90;;;;;;5097188;28;20047;-65
2023/09/28 07:40:12;;;;;;;14.07;4.90;;;22.80;99.90;;;;;;5097665;28;20397;-65
2023/09/28 07:42:41;;;;;;;19.40;4.50;;;22.50;99.90;;;;;;5097062;28;20044;-65
2023/09/28 07:45:09;;;;;;;24.00;5.00;;;22.50;99.90;;;;;;5098798;28;20101;-65
2023/09/28 07:47:36;;;;;;;16.45;4.85;;;22.20;99.90;;;;;;5096045;28;20104;-65
2023/09/28 07:50:03;;;;;;;14.98;4.35;;;22.00;99.90;;;;;;5097423;28;20054;-65
2023/09/28 07:52:30;;;;;;;18.35;5.00;;;21.80;99.90;;;;;;5097221;28;20044;-64
2023/09/28 07:54:57;;;;;;;20.02;4.22;;;21.60;99.90;;;;;;5097044;28;20484;-64
2023/09/28 07:57:24;;;;;;;16.00;4.78;;;21.50;99.90;;;;;;5096238;28;20058;-65
2023/09/28 07:59:54;;;;;;;14.43;4.05;;;21.20;99.90;;;;;;5095725;28;20445;-66
2023/09/28 08:02:21;;;;;;;16.50;3.90;;;21.40;99.90;;;;;;5095034;28;20047;-65
2023/09/28 08:04:48;;;;;;;15.55;4.68;;;21.30;99.90;;;;;;5097172;28;20047;-64
2023/09/28 08:07:15;;;;;;;14.50;4.00;;;21.40;99.90;;;;;;5097737;28;20051;-65
2023/09/28 08:09:43;;;;;;;18.40;4.10;;;21.30;99.90;;;;;;5108894;28;20042;-64
2023/09/28 08:12:10;;;;;;;16.67;4.35;;;21.40;99.90;;;;;;5094318;28;20057;-64
2023/09/28 08:14:37;;;;;;;11.05;3.25;;;21.30;99.90;;;;;;5111458;28;20043;-65
2023/09/28 08:17:06;;;;;;;16.90;4.28;;;21.40;99.90;;;;;;5097860;28;20048;-64
2023/09/28 08:19:33;;;;;;;17.30;4.03;;;21.40;99.90;;;;;;5094501;28;20052;-65
2023/09/28 08:22:00;;;;;;;16.77;4.15;;;21.50;99.90;;;;;;5093211;28;20044;-65
2023/09/28 08:24:28;;;;;;;17.52;4.28;;;21.60;99.90;;;;;;5094057;28;20050;-65
2023/09/28 08:26:55;;;;;;;14.40;3.72;;;22.20;99.90;;;;;;5094182;28;20134;-65
2023/09/28 08:29:22;;;;;;;19.63;4.47;;;22.40;99.90;;;;;;5111705;28;20093;-65
2023/09/28 08:31:49;;;;;;;16.30;4.03;;;22.60;99.90;;;;;;5111609;28;20051;-66
2023/09/28 08:34:17;;;;;;;17.17;3.92;;;22.60;99.90;;;;;;5097399;28;20046;-65
2023/09/28 08:36:45;;;;;;;16.20;3.45;;;22.50;99.90;;;;;;5097364;28;20136;-65
2023/09/28 08:39:12;;;;;;;16.58;3.90;;;22.40;99.90;;;;;;5097393;28;20047;-64
2023/09/28 08:41:44;;;;;;;14.18;3.72;;;22.30;99.90;;;;;;5095428;28;20044;-65
2023/09/28 08:44:12;;;;;;;15.30;3.38;;;22.30;99.90;;;;;;5097439;28;20051;-65
2023/09/28 08:46:40;;;;;;;46.38;10.52;;;22.60;99.90;;;;;;5046741;28;20051;-66
2023/09/28 08:49:08;;;;;;;13.70;3.53;;;22.70;99.90;;;;;;5096152;28;20071;-65
2023/09/28 08:51:38;;;;;;;14.45;4.03;;;22.80;99.90;;;;;;5096301;28;20048;-65
2023/09/28 08:54:06;;;;;;;15.95;4.40;;;23.10;99.90;;;;;;5092292;28;20056;-65
2023/09/28 08:56:36;;;;;;;12.55;3.97;;;23.20;99.90;;;;;;5096195;28;20047;-66
2023/09/28 08:59:04;;;;;;;17.15;5.18;;;23.20;99.90;;;;;;5093334;28;20061;-65
2023/09/28 09:01:32;;;;;;;17.33;3.80;;;23.40;99.90;;;;;;5111691;28;20039;-65
2023/09/28 09:04:00;;;;;;;19.25;4.20;;;23.70;99.90;;;;;;5093137;28;20807;-65
2023/09/28 09:06:29;;;;;;;16.08;4.38;;;23.60;99.90;;;;;;5093836;28;20411;-64
2023/09/28 09:09:01;;;;;;;18.75;4.78;;;23.40;99.90;;;;;;5093747;28;20487;-65
2023/09/28 09:11:29;;;;;;;14.43;3.63;;;23.30;99.90;;;;;;5111344;28;20403;-65
2023/09/28 09:13:56;;;;;;;13.32;3.75;;;23.50;99.90;;;;;;5093478;28;20054;-65
2023/09/28 09:16:24;;;;;;;17.42;4.38;;;23.40;99.90;;;;;;5112055;28;20070;-65
2023/09/28 09:18:52;;;;;;;17.45;4.53;;;24.00;99.90;;;;;;5111060;28;20047;-66
2023/09/28 09:21:19;;;;;;;13.98;3.80;;;24.40;99.90;;;;;;5097370;28;20407;-65
2023/09/28 09:24:03;;;;;;;16.92;3.67;;;24.30;99.90;;;;;;5096021;28;20129;-65
2023/09/28 09:26:38;;;;;;;15.00;3.63;;;23.90;99.90;;;;;;5095035;28;20492;-65
2023/09/28 09:29:05;;;;;;;15.57;3.50;;;23.20;99.90;;;;;;5097324;28;20407;-65
2023/09/28 09:31:33;;;;;;;12.32;3.70;;;22.80;99.90;;;;;;5097443;28;20071;-65
2023/09/28 09:34:03;;;;;;;13.43;4.13;;;22.40;99.90;;;;;;5091518;28;20052;-65
2023/09/28 09:36:30;;;;;;;14.10;3.67;;;22.10;99.90;;;;;;5096772;28;20052;-65
2023/09/28 09:38:58;;;;;;;18.73;4.30;;;21.70;99.90;;;;;;5114211;28;20044;-65
2023/09/28 09:41:28;;;;;;;17.80;4.10;;;21.50;99.90;;;;;;5096698;28;20043;-65
2023/09/28 09:43:55;;;;;;;14.82;4.03;;;21.20;99.90;;;;;;5096500;28;20051;-65
2023/09/28 09:46:22;;;;;;;17.42;4.18;;;20.90;99.90;;;;;;5091945;28;20048;-65
2023/09/28 09:48:50;;;;;;;19.33;4.97;;;20.70;99.90;;;;;;5095602;28;20100;-65
2023/09/28 09:51:18;;;;;;;16.45;4.82;;;20.70;99.90;;;;;;5111076;28;20050;-66
2023/09/28 09:53:47;;;;;;;20.65;4.22;;;20.60;99.90;;;;;;5094856;28;20056;-65
2023/09/28 09:56:16;;;;;;;16.85;3.80;;;20.50;99.90;;;;;;5114650;28;20568;-65
2023/09/28 09:58:48;;;;;;;28.38;7.10;;;20.50;99.90;;;;;;5095601;28;20507;-64
2023/09/28 10:01:16;;;;;;;20.52;6.70;;;20.40;99.90;;;;;;5095886;28;20503;-65
2023/09/28 10:03:46;;;;;;;23.27;7.25;;;20.50;99.90;;;;;;5111779;28;20039;-65
2023/09/28 10:06:15;;;;;;;20.55;7.57;;;20.60;99.90;;;;;;5114889;28;20055;-65
2023/09/28 10:08:43;;;;;;;23.02;7.88;;;20.80;99.90;;;;;;5094500;28;20453;-65
2023/09/28 10:11:12;;;;;;;22.13;7.03;;;21.00;99.90;;;;;;5095965;28;20103;-65
2023/09/28 10:13:39;;;;;;;19.67;5.20;;;21.10;99.90;;;;;;5113887;28;20046;-66
2023/09/28 10:16:12;;;;;;;18.65;5.55;;;21.00;99.90;;;;;;5113901;28;20123;-64
2023/09/28 10:18:43;;;;;;;20.75;5.70;;;21.00;99.90;;;;;;5094513;28;20059;-66
2023/09/28 10:21:10;;;;;;;16.45;6.05;;;20.90;99.90;;;;;;5093575;28;20636;-65
2023/09/28 10:23:37;;;;;;;21.80;6.10;;;20.90;99.90;;;;;;5080215;28;20048;-65
2023/09/28 10:26:07;;;;;;;23.33;5.38;;;20.80;99.90;;;;;;5088996;28;20062;-66
2023/09/28 10:28:34;;;;;;;15.40;4.60;;;20.70;99.90;;;;;;5088897;28;20487;-65
2023/09/28 10:31:10;;;;;;;25.40;5.60;;;20.70;99.90;;;;;;5089759;28;20051;-64
2023/09/28 10:33:57;;;;;;;21.33;5.55;;;20.60;99.90;;;;;;5109078;28;20048;-64
2023/09/28 10:36:26;;;;;;;20.08;4.88;;;20.70;99.90;;;;;;5091575;28;20491;-64
2023/09/28 10:39:11;;;;;;;19.60;5.05;;;20.60;99.90;;;;;;5090859;28;20538;-64
2023/09/28 10:41:38;;;;;;;25.30;5.22;;;20.70;99.90;;;;;;5108568;28;20498;-66
2023/09/28 10:44:13;;;;;;;17.90;4.65;;;20.40;99.90;;;;;;5091063;28;20062;-65
2023/09/28 10:46:42;;;;;;;18.25;4.55;;;20.40;99.90;;;;;;5094142;28;20104;-65
2023/09/28 10:49:10;;;;;;;23.33;5.13;;;20.50;99.90;;;;;;5095487;28;20056;-65
2023/09/28 10:51:37;;;;;;;17.13;4.18;;;20.40;99.90;;;;;;5094977;28;20043;-64
2023/09/28 10:54:06;;;;;;;18.73;4.30;;;20.40;99.90;;;;;;5095363;28;20047;-65
2023/09/28 10:56:33;;;;;;;21.83;5.53;;;20.40;99.90;;;;;;5090220;28;20060;-64
2023/09/28 10:59:04;;;;;;;12.18;3.85;;;20.20;99.90;;;;;;5094926;28;20047;-65
2023/09/28 11:01:31;;;;;;;16.00;4.65;;;20.10;99.90;;;;;;5087607;28;20036;-65
2023/09/28 11:03:59;;;;;;;14.60;3.92;;;20.10;99.90;;;;;;5091039;28;20125;-64
2023/09/28 11:06:26;;;;;;;14.77;3.97;;;20.10;99.90;;;;;;5112496;28;20491;-65
2023/09/28 11:08:53;;;;;;;14.23;4.05;;;20.20;99.90;;;;;;5095320;28;20052;-65
2023/09/28 11:11:21;;;;;;;10.95;4.00;;;20.30;99.90;;;;;;5094589;28;20407;-66
2023/09/28 11:13:49;;;;;;;14.75;3.85;;;20.30;99.90;;;;;;5095148;28;20047;-65
2023/09/28 11:16:18;;;;;;;18.27;4.45;;;20.20;99.90;;;;;;5094954;28;20096;-66
2023/09/28 11:18:46;;;;;;;9.77;3.50;;;20.20;99.90;;;;;;5090775;28;20090;-65
2023/09/28 11:21:15;;;;;;;13.20;3.63;;;20.20;99.90;;;;;;5094735;28;20046;-64
2023/09/28 11:23:43;;;;;;;15.75;4.05;;;20.20;99.90;;;;;;5094814;28;20058;-64
2023/09/28 11:26:11;;;;;;;16.98;4.32;;;20.30;99.90;;;;;;5093242;28;20090;-65
2023/09/28 11:28:39;;;;;;;19.98;4.88;;;20.30;99.90;;;;;;5093215;28;20039;-65
2023/09/28 11:31:09;;;;;;;18.60;3.90;;;20.30;99.90;;;;;;5094575;28;20050;-65
2023/09/28 11:33:36;;;;;;;14.52;3.80;;;20.30;99.90;;;;;;5112156;28;20043;-64
2023/09/28 11:36:04;;;;;;;19.20;3.72;;;20.20;99.90;;;;;;5094687;28;20043;-65
2023/09/28 11:38:32;;;;;;;12.75;4.03;;;20.20;99.90;;;;;;5092389;28;20060;-64
2023/09/28 11:41:02;;;;;;;14.95;3.90;;;20.20;99.90;;;;;;5094721;28;20090;-64
2023/09/28 11:43:29;;;;;;;15.68;4.10;;;20.20;99.90;;;;;;5094341;28;20043;-64
2023/09/28 11:45:56;;;;;;;14.45;4.15;;;20.20;99.90;;;;;;5093946;28;20059;-64
2023/09/28 11:48:23;;;;;;;13.23;4.00;;;20.30;99.90;;;;;;5094448;28;20083;-64
2023/09/28 11:50:50;;;;;;;12.93;3.38;;;20.30;99.90;;;;;;5090487;28;20051;-65
2023/09/28 11:53:17;;;;;;;11.57;3.92;;;20.40;99.90;;;;;;5111786;28;20043;-65
2023/09/28 11:55:47;;;;;;;14.43;3.47;;;20.30;99.90;;;;;;5094402;28;20043;-65
2023/09/28 11:58:20;;;;;;;15.73;3.85;;;20.40;99.90;;;;;;5094268;28;20051;-65
2023/09/28 12:00:48;;;;;;;14.50;4.22;;;20.40;99.90;;;;;;5093714;28;20040;-65
2023/09/28 12:03:15;;;;;;;15.40;4.10;;;20.40;99.90;;;;;;5094263;28;20429;-65
2023/09/28 12:05:42;;;;;;;12.40;3.78;;;20.40;99.90;;;;;;5112438;28;20044;-65
2023/09/28 12:08:10;;;;;;;21.48;4.55;;;20.60;99.90;;;;;;5093277;28;20051;-64
2023/09/28 12:10:38;;;;;;;14.65;4.43;;;20.60;99.90;;;;;;5093882;28;20059;-64
2023/09/28 12:13:06;;;;;;;13.13;3.67;;;20.50;99.90;;;;;;5094297;28;20421;-64
2023/09/28 12:15:33;;;;;;;16.45;4.20;;;20.60;99.90;;;;;;5093612;28;20055;-64
2023/09/28 12:18:01;;;;;;;15.25;4.35;;;20.70;99.90;;;;;;5091818;28;20055;-65
2023/09/28 12:20:29;;;;;;;16.52;3.60;;;20.90;99.90;;;;;;5093952;28;20411;-65
2023/09/28 12:22:56;;;;;;;17.70;4.07;;;21.00;99.90;;;;;;5093084;28;20035;-65
2023/09/28 12:25:24;;;;;;;20.27;4.32;;;21.10;99.90;;;;;;5111750;28;20051;-65
2023/09/28 12:27:51;;;;;;;15.40;3.97;;;21.10;99.90;;;;;;5111414;28;20051;-65
2023/09/28 12:30:21;;;;;;;19.75;4.75;;;20.90;99.90;;;;;;5112040;28;20044;-64
2023/09/28 12:32:50;;;;;;;13.65;3.63;;;20.70;99.90;;;;;;5093758;28;20097;-64
2023/09/28 12:35:18;;;;;;;18.00;3.88;;;20.60;99.90;;;;;;5111343;28;20048;-64
2023/09/28 12:37:46;;;;;;;19.33;4.80;;;20.60;99.90;;;;;;5093960;28;20491;-65
2023/09/28 12:40:13;;;;;;;17.15;4.60;;;20.60;99.90;;;;;;5093748;28;20515;-64
2023/09/28 12:42:41;;;;;;;16.13;5.00;;;21.00;99.90;;;;;;5093043;28;20498;-65
2023/09/28 12:45:09;;;;;;;15.88;4.32;;;21.10;99.90;;;;;;5093693;28;20110;-65